Bynum, North Carolina
Current Conditions -  °F | °C
As of 7:56 AM on Wednesday 22 Oct 2014 (Local Time) from KIGX Reporting Station
Clear Clear  
Wind Chill: 45°   Ceiling: Unl
Heat Index: 49°   Visibility: 10mi
Dew Point: 39°   Wind: 9mph
Humidity: 69%   Direction: 300°WNW
Pressure: 29.98"   Gusts: NA
Location:  35.77°N, 79.14°W
Report Text: KIGX 221156Z AUTO 30008KT 10SM CLR 09/04 A2998 RMK AO2 SLP151 T00940039 10106 20089 53012
Loading
Personal Weather Stations






























Interactive Weather Map
Tropical Storm Tracking
New forecast layout! Learn more

10-Day Weather Forecast

Advertisements
Track Severe Weather on mobile